createdAt,value
2018-08-14T00:00:29.402Z,72.50
2018-08-14T00:02:59.403Z,72.86
2018-08-14T00:05:28.470Z,73.15
2018-08-14T00:07:57.630Z,73.97
2018-08-14T00:10:26.933Z,73.05
2018-08-14T00:12:56.439Z,73.78
2018-08-14T00:15:26.070Z,73.78
2018-08-14T00:17:54.964Z,73.59
2018-08-14T00:20:24.083Z,73.27
2018-08-14T00:22:53.679Z,74.24
2018-08-14T00:25:22.534Z,73.74
2018-08-14T00:27:53.884Z,73.61
2018-08-14T00:30:25.796Z,74.25
2018-08-14T00:32:55.093Z,74.88
2018-08-14T00:35:23.999Z,74.74
2018-08-14T00:37:53.902Z,74.79
2018-08-14T00:40:24.223Z,75.01
2018-08-14T00:42:55.564Z,74.74
2018-08-14T00:45:24.482Z,75.76
2018-08-14T00:47:53.919Z,76.02
2018-08-14T00:50:23.417Z,75.56
2018-08-14T00:52:52.334Z,75.54
2018-08-14T00:55:22.145Z,75.81
2018-08-14T00:57:52.059Z,75.92
2018-08-14T01:00:23.119Z,75.99
2018-08-14T01:02:54.395Z,75.50
2018-08-14T01:05:23.286Z,75.43
2018-08-14T01:07:52.720Z,76.01
2018-08-14T01:10:21.865Z,76.13
2018-08-14T01:12:54.312Z,76.83
2018-08-14T01:15:28.783Z,76.44
2018-08-14T01:17:58.179Z,76.14
2018-08-14T01:20:30.075Z,75.70
2018-08-14T01:22:59.066Z,75.66
2018-08-14T01:25:28.016Z,75.35
2018-08-14T01:27:57.365Z,75.43
2018-08-14T01:30:30.720Z,75.92
2018-08-14T01:32:59.754Z,75.75
2018-08-14T01:35:28.791Z,75.57
2018-08-14T01:37:58.280Z,75.94
2018-08-14T01:40:28.076Z,75.62
2018-08-14T01:42:56.854Z,75.22
2018-08-14T01:45:25.659Z,74.99
2018-08-14T01:47:55.119Z,75.29
2018-08-14T01:50:26.550Z,75.49
2018-08-14T01:52:55.391Z,75.26
2018-08-14T01:55:25.210Z,75.27
2018-08-14T01:57:55.287Z,75.58
2018-08-14T02:00:25.310Z,75.31
2018-08-14T02:02:54.996Z,75.83
2018-08-14T02:05:23.888Z,75.49
2018-08-14T02:07:53.364Z,75.88
2018-08-14T02:10:23.485Z,75.52
2018-08-14T02:12:52.974Z,75.09
2018-08-14T02:15:22.381Z,74.81
2018-08-14T02:17:51.268Z,75.30
2018-08-14T02:20:22.300Z,74.74
2018-08-14T02:22:52.579Z,74.69
2018-08-14T02:25:21.480Z,74.33
2018-08-14T02:27:51.727Z,74.97
2018-08-14T02:30:20.486Z,75.38
2018-08-14T02:32:49.317Z,74.73
2018-08-14T02:35:18.392Z,75.17
2018-08-14T02:37:47.655Z,74.81
2018-08-14T02:40:22.217Z,75.12
2018-08-14T02:42:53.246Z,75.26
2018-08-14T02:45:22.015Z,74.77
2018-08-14T02:47:51.459Z,75.24
2018-08-14T02:50:20.908Z,75.66
2018-08-14T02:52:49.723Z,74.82
2018-08-14T02:55:20.550Z,75.03
2018-08-14T02:57:50.031Z,75.33
2018-08-14T03:00:26.025Z,75.01
2018-08-14T03:02:55.605Z,75.43
2018-08-14T03:05:24.453Z,75.13
2018-08-14T03:07:53.707Z,75.58
2018-08-14T03:10:22.491Z,74.88
2018-08-14T03:12:51.347Z,75.22
2018-08-14T03:15:22.448Z,75.16
2018-08-14T03:17:53.175Z,74.82
2018-08-14T03:20:22.128Z,74.35
2018-08-14T03:22:51.132Z,74.40
2018-08-14T03:25:19.995Z,74.25
2018-08-14T03:27:49.685Z,74.03
2018-08-14T03:30:18.684Z,73.78
2018-08-14T03:32:48.104Z,74.34
2018-08-14T03:35:17.935Z,74.16
2018-08-14T03:37:47.045Z,74.35
2018-08-14T03:40:19.249Z,73.96
2018-08-14T03:42:49.775Z,73.92
2018-08-14T03:45:18.699Z,74.14
2018-08-14T03:47:48.311Z,74.28
2018-08-14T03:50:18.526Z,73.95
2018-08-14T03:52:48.097Z,74.17
2018-08-14T03:55:18.514Z,74.78
2018-08-14T03:57:48.237Z,74.50
2018-08-14T04:00:18.647Z,74.35
2018-08-14T04:02:48.296Z,74.91
2018-08-14T04:05:18.066Z,74.72
2018-08-14T04:07:48.199Z,75.19
2018-08-14T04:10:17.487Z,75.31
2018-08-14T04:12:47.302Z,75.99
2018-08-14T04:15:17.804Z,74.88
2018-08-14T04:17:48.320Z,75.79
2018-08-14T04:20:17.814Z,75.85
2018-08-14T04:22:47.043Z,75.80
2018-08-14T04:25:18.075Z,75.30
2018-08-14T04:27:47.946Z,76.58
2018-08-14T04:30:18.047Z,76.28
2018-08-14T04:32:47.349Z,76.28
2018-08-14T04:35:16.385Z,75.65
2018-08-14T04:37:46.358Z,76.21
2018-08-14T04:40:16.519Z,76.97
2018-08-14T04:42:46.268Z,76.38
2018-08-14T04:45:15.978Z,76.60
2018-08-14T04:47:45.891Z,77.10
2018-08-14T04:50:15.923Z,77.40
2018-08-14T04:52:44.742Z,77.65
2018-08-14T04:55:13.861Z,77.39
2018-08-14T04:57:43.642Z,77.85
2018-08-14T05:00:14.396Z,78.22
2018-08-14T05:02:44.512Z,78.68
2018-08-14T05:05:14.226Z,78.46
2018-08-14T05:07:43.708Z,79.54
2018-08-14T05:10:14.771Z,79.27
2018-08-14T05:12:43.579Z,79.49
2018-08-14T05:15:12.495Z,78.88
2018-08-14T05:17:41.972Z,79.86
2018-08-14T05:20:12.397Z,79.11
2018-08-14T05:22:41.494Z,79.11
2018-08-14T05:25:10.800Z,79.59
2018-08-14T05:27:40.552Z,79.25
2018-08-14T05:30:13.489Z,80.00
2018-08-14T05:32:42.280Z,79.66
2018-08-14T05:35:11.355Z,80.06
2018-08-14T05:37:40.361Z,80.00
2018-08-14T05:40:10.284Z,79.11
2018-08-14T05:42:40.350Z,79.44
2018-08-14T05:45:10.674Z,79.02
2018-08-14T05:47:39.892Z,79.22
2018-08-14T05:50:10.969Z,79.68
2018-08-14T05:52:39.757Z,79.12
2018-08-14T05:55:08.748Z,79.92
2018-08-14T05:57:37.995Z,80.26
2018-08-14T06:00:09.033Z,79.31
2018-08-14T06:02:38.440Z,79.75
2018-08-14T06:05:08.158Z,78.96
2018-08-14T06:07:38.037Z,79.18
2018-08-14T06:10:07.779Z,80.07
2018-08-14T06:12:36.674Z,80.47
2018-08-14T06:15:08.190Z,80.82
2018-08-14T06:17:38.100Z,80.20
2018-08-14T06:20:08.615Z,81.15
2018-08-14T06:22:37.994Z,80.80
2018-08-14T06:25:07.250Z,80.85
2018-08-14T06:27:36.367Z,81.44
2018-08-14T06:30:10.105Z,81.31
2018-08-14T06:32:38.943Z,80.85
2018-08-14T06:35:07.806Z,81.01
2018-08-14T06:37:38.826Z,81.97
2018-08-14T06:40:12.005Z,81.37
2018-08-14T06:42:42.299Z,81.62
2018-08-14T06:45:13.324Z,81.08
2018-08-14T06:47:42.893Z,79.95
2018-08-14T06:50:16.286Z,79.96
2018-08-14T06:52:45.823Z,80.76
2018-08-14T06:55:14.968Z,80.29
2018-08-14T06:57:45.413Z,80.91
2018-08-14T07:00:18.353Z,80.55
2018-08-14T07:02:48.801Z,81.33
2018-08-14T07:05:18.229Z,81.20
2018-08-14T07:07:49.441Z,80.60
2018-08-14T07:10:18.451Z,80.66
2018-08-14T07:12:47.687Z,80.42
2018-08-14T07:15:20.566Z,80.32
2018-08-14T07:17:49.940Z,79.99
2018-08-14T07:20:19.550Z,81.51
2018-08-14T07:22:49.450Z,81.16
2018-08-14T07:25:19.744Z,81.20
2018-08-14T07:27:49.670Z,81.47
2018-08-14T07:30:20.272Z,80.60
2018-08-14T07:32:49.510Z,81.07
2018-08-14T07:35:19.397Z,80.51
2018-08-14T07:37:49.639Z,81.05
2018-08-14T07:40:19.459Z,80.91
2018-08-14T07:42:49.021Z,79.90
2018-08-14T07:45:18.649Z,80.18
2018-08-14T07:47:48.555Z,80.48
2018-08-14T07:50:18.104Z,81.12
2018-08-14T07:52:47.253Z,80.68
2018-08-14T07:55:16.303Z,80.40
2018-08-14T07:57:46.120Z,80.73
2018-08-14T08:00:18.334Z,80.04
2018-08-14T08:02:49.266Z,80.70
2018-08-14T08:05:18.791Z,80.57
2018-08-14T08:07:48.775Z,80.40
2018-08-14T08:10:18.313Z,79.71
2018-08-14T08:12:47.600Z,79.71
2018-08-14T08:15:17.683Z,79.09
2018-08-14T08:17:47.630Z,78.87
2018-08-14T08:20:34.192Z,79.37
2018-08-14T08:23:04.476Z,78.84
2018-08-14T08:25:33.572Z,78.82
2018-08-14T08:28:03.500Z,78.23
2018-08-14T08:30:32.275Z,77.72
2018-08-14T08:33:01.182Z,78.68
2018-08-14T08:35:30.143Z,78.11
2018-08-14T08:37:59.518Z,78.75
2018-08-14T08:40:29.483Z,79.63
2018-08-14T08:42:58.891Z,79.52
2018-08-14T08:45:27.725Z,78.81
2018-08-14T08:48:20.055Z,79.55
2018-08-14T08:50:49.709Z,79.36
2018-08-14T08:53:20.159Z,78.91
2018-08-14T08:55:51.801Z,80.36
2018-08-14T08:58:21.574Z,78.75
2018-08-14T09:00:50.346Z,79.61
2018-08-14T09:03:20.331Z,78.88
2018-08-14T09:05:49.278Z,79.15
2018-08-14T09:08:18.907Z,79.54
2018-08-14T09:10:48.074Z,79.25
2018-08-14T09:13:18.239Z,79.23
2018-08-14T09:15:48.292Z,79.34
2018-08-14T09:18:17.433Z,79.57
2018-08-14T09:20:46.407Z,79.28
2018-08-14T09:23:15.731Z,79.81
2018-08-14T09:25:44.776Z,79.38
2018-08-14T09:28:14.487Z,79.29
2018-08-14T09:30:43.296Z,79.66
2018-08-14T09:33:12.167Z,79.99
2018-08-14T09:35:41.056Z,79.69
2018-08-14T09:38:09.901Z,79.72
2018-08-14T09:40:46.951Z,78.82
2018-08-14T09:43:16.659Z,79.76
2018-08-14T09:45:46.289Z,79.57
2018-08-14T09:48:16.013Z,79.76
2018-08-14T09:50:44.937Z,78.88
2018-08-14T09:53:13.732Z,80.03
2018-08-14T09:55:43.090Z,79.41
2018-08-14T09:58:14.077Z,79.97
2018-08-14T10:00:48.003Z,80.57
2018-08-14T10:03:23.174Z,80.26
2018-08-14T10:06:54.635Z,79.97
2018-08-14T10:09:24.861Z,80.56
2018-08-14T10:11:53.698Z,80.27
2018-08-14T10:14:26.622Z,79.48
2018-08-14T10:16:56.353Z,79.59
2018-08-14T10:19:25.147Z,80.22
2018-08-14T10:21:53.971Z,80.06
2018-08-14T10:24:22.860Z,80.12
2018-08-14T10:26:51.702Z,80.13
2018-08-14T10:29:20.945Z,78.47
2018-08-14T10:31:49.799Z,79.39
2018-08-14T10:34:18.796Z,78.93
2018-08-14T10:36:47.938Z,79.61
2018-08-14T10:39:16.935Z,78.81
2018-08-14T10:41:47.266Z,78.19
2018-08-14T10:44:17.406Z,79.00
2018-08-14T10:46:46.409Z,78.08
2018-08-14T10:49:15.898Z,78.93
2018-08-14T10:51:44.743Z,79.17
2018-08-14T10:54:13.604Z,78.44
2018-08-14T10:56:42.963Z,78.41
2018-08-14T10:59:11.749Z,79.04
2018-08-14T11:01:40.598Z,78.54
2018-08-14T11:04:09.965Z,79.13
2018-08-14T11:06:38.872Z,79.48
2018-08-14T11:09:09.133Z,78.43
2018-08-14T11:11:43.135Z,79.61
2018-08-14T11:14:16.190Z,80.39
2018-08-14T11:16:46.483Z,80.08
2018-08-14T11:19:15.480Z,80.86
2018-08-14T11:21:44.363Z,81.31
2018-08-14T11:24:13.286Z,81.61
2018-08-14T11:26:42.084Z,82.41
2018-08-14T11:29:11.492Z,82.13
2018-08-14T11:31:40.302Z,82.55
2018-08-14T11:34:09.039Z,82.67
2018-08-14T11:36:37.883Z,83.40
2018-08-14T11:39:09.031Z,82.51
2018-08-14T11:41:38.770Z,83.37
2018-08-14T11:44:08.527Z,82.80
2018-08-14T11:46:37.420Z,83.22
2018-08-14T11:49:10.468Z,83.71
2018-08-14T11:51:39.266Z,83.24
2018-08-14T11:54:08.073Z,83.75
2018-08-14T11:56:38.307Z,83.76
2018-08-14T11:59:07.037Z,84.35
2018-08-14T12:01:36.055Z,83.54
2018-08-14T12:04:05.318Z,84.46
2018-08-14T12:06:34.158Z,84.23
2018-08-14T12:09:04.944Z,85.08
2018-08-14T12:11:33.703Z,84.86
2018-08-14T12:14:02.483Z,84.48
2018-08-14T12:16:32.094Z,84.30
2018-08-14T12:19:00.823Z,84.90
2018-08-14T12:21:29.640Z,84.57
2018-08-14T12:23:58.483Z,84.87
2018-08-14T12:26:27.228Z,85.06
2018-08-14T12:28:56.659Z,84.83
2018-08-14T12:31:25.480Z,84.14
2018-08-14T12:33:54.215Z,84.32
2018-08-14T12:36:23.015Z,84.88
2018-08-14T12:38:51.810Z,83.70
2018-08-14T12:41:22.002Z,84.62
2018-08-14T12:43:52.589Z,84.04
2018-08-14T12:46:21.384Z,84.07
2018-08-14T12:48:50.648Z,84.06
2018-08-14T12:51:19.538Z,84.27
2018-08-14T12:53:48.483Z,83.71
2018-08-14T12:56:18.331Z,83.88
2018-08-14T12:58:48.107Z,84.07
2018-08-14T13:01:17.617Z,85.05
2018-08-14T13:03:47.151Z,85.19
2018-08-14T13:06:16.826Z,84.96
2018-08-14T13:08:46.385Z,84.42
2018-08-14T13:11:15.585Z,85.12
2018-08-14T13:13:44.418Z,84.67
2018-08-14T13:16:14.118Z,84.01
2018-08-14T13:18:42.936Z,84.03
2018-08-14T13:21:11.659Z,83.85
2018-08-14T13:23:40.455Z,84.47
2018-08-14T13:26:09.265Z,83.90
2018-08-14T13:28:38.918Z,84.04
2018-08-14T13:31:07.702Z,83.70
2018-08-14T13:33:36.567Z,84.64
2018-08-14T13:36:05.432Z,84.56
2018-08-14T13:38:34.194Z,84.99
2018-08-14T13:41:03.947Z,84.89
2018-08-14T13:43:33.478Z,83.88
2018-08-14T13:46:02.226Z,83.39
2018-08-14T13:48:31.744Z,84.10
2018-08-14T13:51:00.575Z,84.62
2018-08-14T13:53:29.437Z,84.86
2018-08-14T13:55:58.919Z,83.52
2018-08-14T13:58:28.439Z,84.19
2018-08-14T14:00:57.863Z,84.40
2018-08-14T14:03:27.072Z,84.80
2018-08-14T14:05:55.879Z,84.10
2018-08-14T14:08:25.411Z,84.16
2018-08-14T14:10:54.147Z,84.81
2018-08-14T14:13:23.000Z,83.62
2018-08-14T14:15:52.227Z,85.02
2018-08-14T14:18:21.074Z,84.41
2018-08-14T14:20:49.880Z,84.74
2018-08-14T14:23:18.792Z,84.49
2018-08-14T14:25:48.362Z,84.37
2018-08-14T14:28:18.370Z,84.49
2018-08-14T14:30:47.651Z,85.43
2018-08-14T14:33:16.663Z,85.49
2018-08-14T14:35:45.978Z,84.40
2018-08-14T14:38:15.794Z,84.26
2018-08-14T14:40:45.475Z,85.04
2018-08-14T14:43:14.836Z,84.31
2018-08-14T14:45:43.628Z,85.21
2018-08-14T14:48:13.286Z,84.39
2018-08-14T14:50:42.135Z,85.58
2018-08-14T14:53:11.458Z,84.72
2018-08-14T14:55:41.021Z,84.74
2018-08-14T14:58:10.419Z,84.20
2018-08-14T15:00:39.780Z,84.68
2018-08-14T15:03:09.519Z,83.84
2018-08-14T15:05:38.291Z,84.52
2018-08-14T15:08:08.587Z,84.60
2018-08-14T15:10:37.443Z,83.81
2018-08-14T15:13:06.368Z,84.55
2018-08-14T15:15:35.933Z,83.29
2018-08-14T15:18:04.772Z,83.65
2018-08-14T15:20:33.536Z,83.14
2018-08-14T15:23:02.325Z,83.02
2018-08-14T15:25:31.884Z,82.10
2018-08-14T15:29:12.307Z,81.14
2018-08-14T15:31:45.039Z,81.83
2018-08-14T15:34:17.587Z,81.93
2018-08-14T15:36:50.469Z,81.06
2018-08-14T15:39:20.352Z,81.19
2018-08-14T15:41:50.058Z,81.54
2018-08-14T15:44:19.605Z,80.29
2018-08-14T15:46:49.208Z,81.29
2018-08-14T15:49:19.178Z,81.15
2018-08-14T15:51:48.915Z,82.00
2018-08-14T15:54:19.205Z,81.53
2018-08-14T15:56:49.355Z,81.73
2018-08-14T15:59:18.931Z,81.76
2018-08-14T16:01:48.281Z,82.52
2018-08-14T16:04:19.677Z,82.40
2018-08-14T16:06:49.442Z,81.90
2018-08-14T16:09:21.083Z,83.28
2018-08-14T16:11:50.405Z,83.38
2018-08-14T16:14:19.528Z,83.65
2018-08-14T16:16:48.894Z,84.78
2018-08-14T16:19:19.915Z,85.00
2018-08-14T16:21:48.720Z,84.18
2018-08-14T16:24:18.662Z,84.43
2018-08-14T16:26:49.635Z,84.99
2018-08-14T16:29:19.804Z,85.03
2018-08-14T16:31:48.697Z,85.10
2018-08-14T16:34:18.516Z,84.71
2018-08-14T16:36:48.005Z,83.91
2018-08-14T16:39:17.267Z,84.17
2018-08-14T16:41:46.950Z,84.64
2018-08-14T16:44:16.724Z,84.31
2018-08-14T16:46:45.915Z,83.08
2018-08-14T16:49:16.746Z,84.06
2018-08-14T16:51:46.788Z,84.58
2018-08-14T16:54:16.211Z,83.66
2018-08-14T16:56:45.719Z,84.02
2018-08-14T16:59:15.161Z,83.89
2018-08-14T17:01:44.075Z,83.78
2018-08-14T17:04:13.455Z,83.58
2018-08-14T17:06:42.440Z,84.11
2018-08-14T17:09:12.091Z,83.75
2018-08-14T17:11:41.345Z,83.41
2018-08-14T17:14:10.137Z,83.43
2018-08-14T17:16:39.395Z,83.92
2018-08-14T17:19:08.476Z,84.26
2018-08-14T17:21:35.882Z,83.65
2018-08-14T17:24:04.683Z,84.07
2018-08-14T17:26:33.518Z,84.21
2018-08-14T17:29:02.775Z,83.38
2018-08-14T17:31:31.755Z,84.70
2018-08-14T17:34:00.483Z,84.26
2018-08-14T17:36:29.410Z,84.78
2018-08-14T17:38:58.252Z,84.79
2018-08-14T17:41:27.723Z,84.57
2018-08-14T17:43:57.258Z,84.22
2018-08-14T17:46:26.061Z,84.34
2018-08-14T17:48:55.492Z,84.06
2018-08-14T17:51:24.242Z,84.28
2018-08-14T17:53:52.979Z,83.69
2018-08-14T17:56:22.155Z,83.81
2018-08-14T17:58:51.635Z,83.78
2018-08-14T18:01:20.881Z,82.79
2018-08-14T18:03:50.242Z,84.01
2018-08-14T18:06:18.983Z,83.38
2018-08-14T18:08:48.560Z,83.87
2018-08-14T18:11:17.600Z,82.26
2018-08-14T18:13:46.917Z,82.24
2018-08-14T18:16:16.476Z,82.39
2018-08-14T18:18:45.723Z,82.66
2018-08-14T18:21:14.534Z,81.96
2018-08-14T18:23:43.407Z,81.89
2018-08-14T18:26:12.155Z,82.05
2018-08-14T18:28:41.565Z,82.67
2018-08-14T18:31:10.504Z,82.77
2018-08-14T18:33:40.167Z,82.28
2018-08-14T18:36:08.967Z,81.97
2018-08-14T18:38:38.099Z,82.02
2018-08-14T18:41:07.573Z,82.04
2018-08-14T18:43:36.925Z,82.49
2018-08-14T18:46:05.739Z,81.98
2018-08-14T18:48:34.933Z,81.92
2018-08-14T18:51:03.763Z,82.08
2018-08-14T18:53:32.560Z,82.61
2018-08-14T18:56:02.395Z,81.91
2018-08-14T18:58:31.797Z,82.64
2018-08-14T19:01:01.289Z,81.83
2018-08-14T19:03:30.603Z,81.76
2018-08-14T19:05:59.407Z,82.87
2018-08-14T19:08:28.732Z,82.32
2018-08-14T19:10:57.459Z,81.98
2018-08-14T19:13:26.207Z,81.25
2018-08-14T19:15:55.530Z,81.11
2018-08-14T19:18:24.313Z,81.63
2018-08-14T19:20:53.028Z,81.98
2018-08-14T19:23:21.860Z,81.46
2018-08-14T19:25:50.655Z,82.06
2018-08-14T19:28:19.937Z,81.59
2018-08-14T19:30:48.709Z,81.21
2018-08-14T19:33:17.807Z,81.11
2018-08-14T19:35:46.908Z,80.83
2018-08-14T19:38:15.867Z,81.55
2018-08-14T19:40:45.168Z,81.51
2018-08-14T19:43:14.747Z,80.20
2018-08-14T19:45:43.554Z,80.82
2018-08-14T19:48:12.994Z,80.37
2018-08-14T19:50:41.786Z,81.21
2018-08-14T19:53:10.554Z,80.19
2018-08-14T19:55:39.963Z,79.76
2018-08-14T19:58:09.232Z,79.63
2018-08-14T20:00:38.613Z,79.77
2018-08-14T20:03:08.074Z,79.90
2018-08-14T20:05:36.870Z,79.68
2018-08-14T20:08:06.234Z,80.41
2018-08-14T20:10:35.043Z,80.43
2018-08-14T20:13:03.942Z,80.10
2018-08-14T20:15:40.637Z,80.59
2018-08-14T20:18:09.438Z,80.16
2018-08-14T20:20:38.237Z,80.57
2018-08-14T20:23:07.050Z,81.08
2018-08-14T20:25:35.904Z,80.35
2018-08-14T20:28:05.523Z,81.04
2018-08-14T20:30:34.343Z,81.24
2018-08-14T20:33:03.153Z,81.68
2018-08-14T20:35:32.809Z,80.66
2018-08-14T20:38:01.694Z,81.71
2018-08-14T20:40:30.980Z,81.43
2018-08-14T20:43:00.198Z,81.31
2018-08-14T20:45:29.426Z,81.87
2018-08-14T20:47:59.035Z,82.08
2018-08-14T20:50:28.663Z,81.25
2018-08-14T20:52:58.036Z,80.55
2018-08-14T20:55:27.147Z,80.80
2018-08-14T20:57:56.735Z,81.46
2018-08-14T21:00:27.905Z,81.18
2018-08-14T21:02:57.414Z,80.78
2018-08-14T21:05:26.842Z,80.15
2018-08-14T21:07:56.299Z,80.76
2018-08-14T21:10:25.066Z,80.85
2018-08-14T21:12:53.935Z,81.19
2018-08-14T21:15:29.857Z,81.27
2018-08-14T21:17:58.859Z,80.10
2018-08-14T21:20:27.720Z,81.03
2018-08-14T21:22:56.506Z,81.16
2018-08-14T21:25:25.435Z,81.77
2018-08-14T21:27:55.079Z,81.52
2018-08-14T21:30:23.924Z,80.76
2018-08-14T21:32:52.687Z,80.46
2018-08-14T21:35:21.528Z,80.75
2018-08-14T21:37:50.316Z,80.73
2018-08-14T21:40:20.247Z,80.83
2018-08-14T21:42:50.621Z,80.61
2018-08-14T21:45:21.773Z,79.06
2018-08-14T21:47:51.375Z,80.21
2018-08-14T21:50:20.150Z,80.05
2018-08-14T21:52:49.611Z,79.85
2018-08-14T21:55:18.579Z,79.36
2018-08-14T21:57:48.271Z,79.27
2018-08-14T22:00:23.853Z,78.97
2018-08-14T22:02:53.501Z,77.79
2018-08-14T22:05:22.307Z,78.45
2018-08-14T22:07:51.803Z,79.19
2018-08-14T22:10:21.253Z,79.43
2018-08-14T22:12:50.646Z,79.50
2018-08-14T22:15:19.531Z,80.02
2018-08-14T22:17:49.323Z,80.56
2018-08-14T22:20:19.331Z,81.17
2018-08-14T22:22:48.316Z,82.04
2018-08-14T22:25:17.968Z,80.82
2018-08-14T22:27:47.688Z,81.71
2018-08-14T22:30:17.100Z,82.12
2018-08-14T22:32:46.412Z,81.74
2018-08-14T22:35:15.683Z,81.99
2018-08-14T22:37:44.589Z,82.46
2018-08-14T22:40:14.027Z,82.29
2018-08-14T22:42:43.499Z,81.54
2018-08-14T22:45:12.322Z,81.35
2018-08-14T22:47:41.515Z,81.57
2018-08-14T22:50:11.140Z,82.07
2018-08-14T22:52:40.833Z,82.81
2018-08-14T22:55:10.999Z,82.72
2018-08-14T22:57:41.417Z,82.64
2018-08-14T23:00:16.113Z,82.20
2018-08-14T23:02:45.974Z,82.18
2018-08-14T23:05:15.714Z,82.53
2018-08-14T23:07:46.079Z,82.23
2018-08-14T23:10:15.678Z,82.48
2018-08-14T23:12:44.920Z,82.76
2018-08-14T23:15:14.540Z,82.67
2018-08-14T23:17:44.138Z,83.41
2018-08-14T23:20:14.056Z,82.62
2018-08-14T23:22:42.872Z,83.49
2018-08-14T23:25:12.859Z,83.67
2018-08-14T23:27:42.671Z,83.20
2018-08-14T23:30:13.868Z,83.55
2018-08-14T23:32:43.952Z,83.10
2018-08-14T23:35:12.739Z,83.06
2018-08-14T23:37:41.847Z,84.08
2018-08-14T23:40:13.779Z,83.04
2018-08-14T23:42:43.233Z,83.71
2018-08-14T23:45:12.171Z,83.93
2018-08-14T23:47:40.915Z,84.09
2018-08-14T23:50:11.960Z,83.60
2018-08-14T23:52:42.056Z,83.87
2018-08-14T23:55:11.492Z,83.41
